createdAt,value
2023-01-18T00:01:01.366Z,93067.72
2023-01-18T00:03:28.551Z,93065.78
2023-01-18T00:05:55.547Z,93067.81
2023-01-18T00:08:22.097Z,93064.50
2023-01-18T00:10:48.647Z,93071.59
2023-01-18T00:13:15.265Z,93074.84
2023-01-18T00:15:41.843Z,93074.06
2023-01-18T00:18:08.439Z,93069.03
2023-01-18T00:20:35.109Z,93076.97
2023-01-18T00:23:02.206Z,93066.25
2023-01-18T00:25:29.705Z,93076.53
2023-01-18T00:27:57.133Z,93079.66
2023-01-18T00:30:26.744Z,93089.47
2023-01-18T00:32:57.756Z,93091.22
2023-01-18T00:35:25.979Z,93092.28
2023-01-18T00:37:54.165Z,93086.13
2023-01-18T00:40:22.634Z,93091.91
2023-01-18T00:43:08.352Z,93084.84
2023-01-18T00:45:35.097Z,93091.44
2023-01-18T00:48:02.802Z,93093.03
2023-01-18T00:50:30.255Z,93089.38
2023-01-18T00:53:00.193Z,93093.59
2023-01-18T00:55:27.828Z,93096.44
2023-01-18T00:57:54.407Z,93092.84
2023-01-18T01:00:26.737Z,93090.03
2023-01-18T01:02:53.791Z,93091.31
2023-01-18T01:05:41.846Z,93101.44
2023-01-18T01:08:17.374Z,93099.22
2023-01-18T01:10:49.419Z,93106.66
2023-01-18T01:13:37.213Z,93105.22
2023-01-18T01:16:26.753Z,93108.88
2023-01-18T01:19:12.287Z,93110.94
2023-01-18T01:21:58.487Z,93109.34
2023-01-18T01:24:44.056Z,93117.91
2023-01-18T01:27:11.690Z,93108.88
2023-01-18T01:29:38.935Z,93118.94
2023-01-18T01:32:06.026Z,93129.13
2023-01-18T01:34:32.751Z,93131.19
2023-01-18T01:36:59.279Z,93134.97
2023-01-18T01:39:26.252Z,93134.44
2023-01-18T01:41:53.025Z,93137.25
2023-01-18T01:44:20.069Z,93140.00
2023-01-18T01:46:59.348Z,93137.91
2023-01-18T01:49:34.740Z,93142.31
2023-01-18T01:52:04.233Z,93141.84
2023-01-18T01:54:33.954Z,93143.91
2023-01-18T01:57:08.279Z,93146.59
2023-01-18T01:59:39.574Z,93146.59
2023-01-18T02:02:07.114Z,93153.97
2023-01-18T02:04:34.235Z,93149.28
2023-01-18T02:07:01.005Z,93153.06
2023-01-18T02:09:27.669Z,93146.94
2023-01-18T02:11:55.801Z,93149.81
2023-01-18T02:14:26.820Z,93158.00
2023-01-18T02:17:05.162Z,93156.91
2023-01-18T02:19:52.986Z,93160.69
2023-01-18T02:22:44.964Z,93168.06
2023-01-18T02:25:30.209Z,93171.00
2023-01-18T02:28:17.299Z,93168.91
2023-01-18T02:31:20.722Z,93173.38
2023-01-18T02:34:02.978Z,93171.59
2023-01-18T02:37:04.336Z,93171.78
2023-01-18T02:40:05.182Z,93181.00
2023-01-18T02:42:53.996Z,93182.94
2023-01-18T02:46:04.114Z,93181.13
2023-01-18T02:48:35.822Z,93185.34
2023-01-18T02:51:02.682Z,93189.41
2023-01-18T02:53:30.944Z,93190.44
2023-01-18T02:56:33.657Z,93202.81
2023-01-18T02:59:10.200Z,93196.03
2023-01-18T03:01:57.453Z,93197.13
2023-01-18T03:04:33.661Z,93203.97
2023-01-18T03:07:09.950Z,93206.47
2023-01-18T03:09:37.665Z,93211.34
2023-01-18T03:12:25.962Z,93220.22
2023-01-18T03:15:10.011Z,93221.66
2023-01-18T03:17:42.483Z,93225.22
2023-01-18T03:20:15.944Z,93224.72
2023-01-18T03:23:16.877Z,93226.31
2023-01-18T03:25:46.152Z,93225.47
2023-01-18T03:28:37.183Z,93218.06
2023-01-18T03:31:28.429Z,93226.16
2023-01-18T03:34:21.551Z,93225.66
2023-01-18T03:36:52.413Z,93224.09
2023-01-18T03:39:28.380Z,93235.41
2023-01-18T03:42:00.702Z,93239.56
2023-01-18T03:44:40.196Z,93238.34
2023-01-18T03:47:07.848Z,93244.38
2023-01-18T03:49:35.302Z,93250.06
2023-01-18T03:52:08.843Z,93254.91
2023-01-18T03:54:47.813Z,93250.91
2023-01-18T03:57:23.439Z,93262.28
2023-01-18T03:59:50.783Z,93266.75
2023-01-18T04:02:18.861Z,93275.03
2023-01-18T04:04:45.437Z,93267.44
2023-01-18T04:07:12.017Z,93275.22
2023-01-18T04:09:38.592Z,93274.13
2023-01-18T04:12:05.338Z,93283.88
2023-01-18T04:14:31.872Z,93292.41
2023-01-18T04:16:58.532Z,93291.09
2023-01-18T04:19:25.081Z,93300.44
2023-01-18T04:21:51.614Z,93298.84
2023-01-18T04:24:18.818Z,93301.47
2023-01-18T04:26:45.371Z,93305.91
2023-01-18T04:29:12.283Z,93302.25
2023-01-18T04:31:39.049Z,93303.00
2023-01-18T04:34:05.687Z,93304.28
2023-01-18T04:36:32.426Z,93315.56
2023-01-18T04:38:59.365Z,93315.38
2023-01-18T04:41:25.949Z,93316.53
2023-01-18T04:43:52.606Z,93308.47
2023-01-18T04:46:19.267Z,93312.34
2023-01-18T04:48:50.337Z,93319.22
2023-01-18T04:51:17.465Z,93321.31
2023-01-18T04:53:45.384Z,93331.69
2023-01-18T04:56:12.502Z,93324.53
2023-01-18T04:58:39.084Z,93337.28
2023-01-18T05:01:08.991Z,93328.22
2023-01-18T05:03:38.254Z,93334.91
2023-01-18T05:06:09.955Z,93340.16
2023-01-18T05:08:40.956Z,93342.06
2023-01-18T05:11:13.106Z,93343.53
2023-01-18T05:13:40.610Z,93343.16
2023-01-18T05:16:09.020Z,93346.94
2023-01-18T05:18:35.825Z,93358.59
2023-01-18T05:21:02.323Z,93350.53
2023-01-18T05:23:28.908Z,93355.69
2023-01-18T05:25:57.212Z,93360.59
2023-01-18T05:28:26.838Z,93374.19
2023-01-18T05:30:55.606Z,93371.31
2023-01-18T05:33:23.042Z,93373.28
2023-01-18T05:35:53.967Z,93367.03
2023-01-18T05:38:21.604Z,93382.53
2023-01-18T05:40:50.318Z,93387.03
2023-01-18T05:43:16.893Z,93392.78
2023-01-18T05:45:43.744Z,93392.28
2023-01-18T05:48:11.563Z,93404.00
2023-01-18T05:50:40.337Z,93399.84
2023-01-18T05:53:07.130Z,93411.41
2023-01-18T05:55:33.761Z,93420.44
2023-01-18T05:58:00.578Z,93413.97
2023-01-18T06:00:27.986Z,93415.38
2023-01-18T06:02:54.642Z,93421.03
2023-01-18T06:05:22.474Z,93426.59
2023-01-18T06:07:49.324Z,93423.63
2023-01-18T06:10:16.831Z,93426.19
2023-01-18T06:12:43.865Z,93427.00
2023-01-18T06:15:11.710Z,93443.31
2023-01-18T06:17:38.781Z,93441.13
2023-01-18T06:20:06.308Z,93445.28
2023-01-18T06:22:32.908Z,93452.34
2023-01-18T06:24:59.632Z,93453.44
2023-01-18T06:27:26.460Z,93460.31
2023-01-18T06:29:53.112Z,93464.31
2023-01-18T06:32:22.824Z,93459.13
2023-01-18T06:34:49.606Z,93458.34
2023-01-18T06:37:16.142Z,93468.09
2023-01-18T06:39:42.676Z,93477.25
2023-01-18T06:42:09.219Z,93478.91
2023-01-18T06:44:35.920Z,93483.41
2023-01-18T06:47:02.499Z,93487.69
2023-01-18T06:49:29.132Z,93489.19
2023-01-18T06:51:55.734Z,93494.75
2023-01-18T06:54:22.368Z,93507.09
2023-01-18T06:56:49.156Z,93509.97
2023-01-18T06:59:15.820Z,93502.78
2023-01-18T07:01:42.711Z,93514.81
2023-01-18T07:04:09.379Z,93516.75
2023-01-18T07:06:36.734Z,93524.50
2023-01-18T07:09:08.142Z,93523.28
2023-01-18T07:11:36.960Z,93529.44
2023-01-18T07:14:03.507Z,93537.13
2023-01-18T07:16:30.537Z,93536.81
2023-01-18T07:18:59.853Z,93544.38
2023-01-18T07:21:29.671Z,93545.84
2023-01-18T07:23:57.667Z,93553.31
2023-01-18T07:26:24.510Z,93553.75
2023-01-18T07:28:51.768Z,93555.94
2023-01-18T07:31:19.191Z,93549.31
2023-01-18T07:33:45.843Z,93565.44
2023-01-18T07:36:14.032Z,93561.06
2023-01-18T07:38:40.662Z,93583.94
2023-01-18T07:41:10.296Z,93581.84
2023-01-18T07:43:37.853Z,93588.00
2023-01-18T07:46:06.321Z,93585.84
2023-01-18T07:48:33.599Z,93584.34
2023-01-18T07:51:05.551Z,93592.69
2023-01-18T07:53:33.719Z,93596.69
2023-01-18T07:56:05.778Z,93594.50
2023-01-18T07:58:32.683Z,93594.94
2023-01-18T08:01:11.766Z,93609.47
2023-01-18T08:03:38.710Z,93614.94
2023-01-18T08:06:09.178Z,93609.66
2023-01-18T08:08:37.156Z,93616.03
2023-01-18T08:11:05.671Z,93622.00
2023-01-18T08:13:32.606Z,93630.16
2023-01-18T08:16:01.208Z,93638.44
2023-01-18T08:18:29.212Z,93646.69
2023-01-18T08:20:56.241Z,93644.63
2023-01-18T08:23:23.186Z,93649.50
2023-01-18T08:25:49.960Z,93645.91
2023-01-18T08:28:19.049Z,93650.81
2023-01-18T08:30:48.154Z,93651.91
2023-01-18T08:33:15.171Z,93651.59
2023-01-18T08:35:44.640Z,93655.69
2023-01-18T08:38:13.565Z,93667.66
2023-01-18T08:40:40.276Z,93671.22
2023-01-18T08:43:06.988Z,93678.19
2023-01-18T08:45:35.059Z,93680.03
2023-01-18T08:48:03.958Z,93684.81
2023-01-18T08:50:32.694Z,93691.78
2023-01-18T08:53:02.931Z,93695.16
2023-01-18T08:55:30.660Z,93690.19
2023-01-18T08:57:58.738Z,93690.19
2023-01-18T09:00:32.962Z,93698.16
2023-01-18T09:03:02.036Z,93706.41
2023-01-18T09:05:28.993Z,93714.38
2023-01-18T09:07:55.899Z,93704.50
2023-01-18T09:10:22.757Z,93716.78
2023-01-18T09:12:49.318Z,93723.34
2023-01-18T09:15:16.057Z,93720.88
2023-01-18T09:17:42.667Z,93729.13
2023-01-18T09:20:11.979Z,93732.22
2023-01-18T09:22:39.217Z,93734.53
2023-01-18T09:25:06.394Z,93741.09
2023-01-18T09:27:33.743Z,93748.56
2023-01-18T09:30:00.378Z,93751.34
2023-01-18T09:32:27.544Z,93760.22
2023-01-18T09:34:54.936Z,93761.91
2023-01-18T09:37:21.661Z,93767.28
2023-01-18T09:39:52.264Z,93761.91
2023-01-18T09:42:25.339Z,93766.59
2023-01-18T09:44:55.202Z,93776.38
2023-01-18T09:47:40.072Z,93778.97
2023-01-18T09:50:15.273Z,93784.66
2023-01-18T09:52:54.281Z,93792.53
2023-01-18T09:55:33.893Z,93794.31
2023-01-18T09:58:15.623Z,93791.03
2023-01-18T10:00:47.142Z,93800.00
2023-01-18T10:03:24.671Z,93794.81
2023-01-18T10:06:08.935Z,93801.41
2023-01-18T10:09:12.183Z,93800.00
2023-01-18T10:12:03.102Z,93809.38
2023-01-18T10:14:32.625Z,93802.91
2023-01-18T10:17:04.610Z,93813.34
2023-01-18T10:19:32.497Z,93819.66
2023-01-18T10:22:23.786Z,93819.16
2023-01-18T10:25:00.106Z,93817.97
2023-01-18T10:27:31.369Z,93823.44
2023-01-18T10:30:11.774Z,93826.53
2023-01-18T10:32:41.274Z,93830.81
2023-01-18T10:35:23.800Z,93832.44
2023-01-18T10:37:52.353Z,93830.72
2023-01-18T10:40:19.129Z,93839.09
2023-01-18T10:42:56.700Z,93847.09
2023-01-18T10:45:32.918Z,93849.50
2023-01-18T10:48:20.099Z,93843.69
2023-01-18T10:50:50.526Z,93840.66
2023-01-18T10:53:27.593Z,93850.34
2023-01-18T10:56:04.393Z,93849.03
2023-01-18T10:58:36.968Z,93848.47
2023-01-18T11:01:04.187Z,93861.13
2023-01-18T11:03:43.450Z,93855.22
2023-01-18T11:06:10.632Z,93852.22
2023-01-18T11:08:37.423Z,93851.56
2023-01-18T11:11:05.720Z,93858.63
2023-01-18T11:13:47.339Z,93851.75
2023-01-18T11:16:18.648Z,93845.25
2023-01-18T11:19:15.924Z,93846.50
2023-01-18T11:21:51.567Z,93846.16
2023-01-18T11:24:31.820Z,93848.69
2023-01-18T11:27:04.404Z,93846.47
2023-01-18T11:29:42.960Z,93855.59
2023-01-18T11:32:29.141Z,93854.34
2023-01-18T11:34:59.869Z,93849.66
2023-01-18T11:37:39.724Z,93849.97
2023-01-18T11:40:29.715Z,93862.16
2023-01-18T11:43:03.713Z,93865.72
2023-01-18T11:45:36.111Z,93866.69
2023-01-18T11:48:13.084Z,93861.13
2023-01-18T11:51:02.759Z,93856.81
2023-01-18T11:53:41.660Z,93867.44
2023-01-18T11:56:21.262Z,93862.91
2023-01-18T11:58:49.627Z,93870.94
2023-01-18T12:01:43.518Z,93870.94
2023-01-18T12:04:36.684Z,93865.50
2023-01-18T12:07:48.431Z,93867.00
2023-01-18T12:10:23.663Z,93860.53
2023-01-18T12:12:56.137Z,93883.03
2023-01-18T12:15:48.893Z,93869.31
2023-01-18T12:18:36.311Z,93878.19
2023-01-18T12:21:55.473Z,93870.19
2023-01-18T12:24:59.074Z,93876.50
2023-01-18T12:27:47.210Z,93884.75
2023-01-18T12:30:22.487Z,93887.75
2023-01-18T12:33:10.649Z,93878.72
2023-01-18T12:35:54.000Z,93884.22
2023-01-18T12:38:27.889Z,93873.69
2023-01-18T12:41:28.547Z,93866.28
2023-01-18T12:43:56.835Z,93873.28
2023-01-18T12:46:35.268Z,93876.53
2023-01-18T12:49:11.263Z,93887.72
2023-01-18T12:51:40.394Z,93889.91
2023-01-18T12:54:34.532Z,93889.13
2023-01-18T12:57:02.267Z,93891.19
2023-01-18T12:59:36.148Z,93893.53
2023-01-18T13:02:27.609Z,93896.50
2023-01-18T13:04:57.120Z,93893.94
2023-01-18T13:07:34.718Z,93911.63
2023-01-18T13:10:02.061Z,93904.56
2023-01-18T13:12:29.251Z,93916.16
2023-01-18T13:15:06.618Z,93912.44
2023-01-18T13:17:42.896Z,93911.13
2023-01-18T13:20:09.612Z,93920.81
2023-01-18T13:22:45.703Z,93917.66
2023-01-18T13:25:38.732Z,93914.72
2023-01-18T13:28:23.396Z,93924.09
2023-01-18T13:30:50.091Z,93917.34
2023-01-18T13:33:24.024Z,93919.50
2023-01-18T13:36:15.273Z,93916.31
2023-01-18T13:38:51.788Z,93918.69
2023-01-18T13:41:26.823Z,93916.22
2023-01-18T13:44:01.991Z,93915.84
2023-01-18T13:46:30.585Z,93927.41
2023-01-18T13:49:02.244Z,93929.44
2023-01-18T13:51:41.124Z,93931.44
2023-01-18T13:54:09.375Z,93940.53
2023-01-18T13:56:37.923Z,93940.91
2023-01-18T13:59:23.348Z,93937.03
2023-01-18T14:01:51.395Z,93945.38
2023-01-18T14:04:33.616Z,93945.50
2023-01-18T14:07:03.699Z,93950.91
2023-01-18T14:09:33.845Z,93952.19
2023-01-18T14:12:00.844Z,93958.63
2023-01-18T14:14:29.691Z,93952.63
2023-01-18T14:17:15.239Z,93956.06
2023-01-18T14:19:48.013Z,93964.16
2023-01-18T14:22:17.531Z,93962.81
2023-01-18T14:24:47.033Z,93964.78
2023-01-18T14:27:35.807Z,93965.81
2023-01-18T14:30:14.924Z,93969.94
2023-01-18T14:32:49.685Z,93971.53
2023-01-18T14:35:21.731Z,93980.00
2023-01-18T14:37:49.483Z,93981.97
2023-01-18T14:40:26.407Z,93985.03
2023-01-18T14:42:55.994Z,93988.72
2023-01-18T14:45:29.360Z,93993.00
2023-01-18T14:48:23.259Z,93996.81
2023-01-18T14:50:53.440Z,93997.88
2023-01-18T14:53:37.408Z,94006.84
2023-01-18T14:56:08.651Z,94012.88
2023-01-18T14:58:42.201Z,94013.25
2023-01-18T15:01:43.952Z,94014.84
2023-01-18T15:04:23.950Z,94030.88
2023-01-18T15:07:01.707Z,94029.63
2023-01-18T15:09:32.232Z,94025.13
2023-01-18T15:12:01.364Z,94042.69
2023-01-18T15:14:34.587Z,94043.41
2023-01-18T15:17:05.925Z,94036.19
2023-01-18T15:19:35.191Z,94040.09
2023-01-18T15:22:04.306Z,94037.53
2023-01-18T15:24:39.899Z,94047.09
2023-01-18T15:27:12.521Z,94064.28
2023-01-18T15:29:39.192Z,94057.59
2023-01-18T15:32:19.947Z,94061.09
2023-01-18T15:34:49.415Z,94069.00
2023-01-18T15:37:21.855Z,94069.00
2023-01-18T15:39:58.198Z,94071.09
2023-01-18T15:42:38.971Z,94067.28
2023-01-18T15:45:16.737Z,94070.91
2023-01-18T15:47:48.523Z,94079.09
2023-01-18T15:50:32.291Z,94073.50
2023-01-18T15:53:12.107Z,94080.69
2023-01-18T15:55:47.074Z,94081.47
2023-01-18T15:58:23.995Z,94090.09
2023-01-18T16:00:58.544Z,94089.59
2023-01-18T16:03:29.084Z,94093.38
2023-01-18T16:05:58.681Z,94090.56
2023-01-18T16:08:25.558Z,94084.78
2023-01-18T16:10:54.681Z,94098.50
2023-01-18T16:13:35.610Z,94090.34
2023-01-18T16:16:14.114Z,94099.94
2023-01-18T16:19:00.476Z,94107.94
2023-01-18T16:21:40.325Z,94106.50
2023-01-18T16:24:30.555Z,94101.22
2023-01-18T16:27:00.361Z,94099.69
2023-01-18T16:29:27.037Z,94107.53
2023-01-18T16:32:25.471Z,94110.75
2023-01-18T16:34:55.207Z,94103.03
2023-01-18T16:37:22.140Z,94116.13
2023-01-18T16:39:49.600Z,94108.13
2023-01-18T16:42:18.212Z,94117.38
2023-01-18T16:44:46.725Z,94132.28
2023-01-18T16:47:16.352Z,94125.59
2023-01-18T16:49:44.185Z,94129.88
2023-01-18T16:52:12.630Z,94133.94
2023-01-18T16:54:44.402Z,94138.72
2023-01-18T16:57:23.895Z,94132.16
2023-01-18T16:59:50.907Z,94141.44
2023-01-18T17:02:17.702Z,94143.16
2023-01-18T17:04:45.635Z,94145.19
2023-01-18T17:07:12.814Z,94152.97
2023-01-18T17:09:47.911Z,94153.66
2023-01-18T17:12:15.806Z,94155.50
2023-01-18T17:14:42.415Z,94164.75
2023-01-18T17:17:10.285Z,94171.66
2023-01-18T17:19:37.961Z,94174.41
2023-01-18T17:22:06.472Z,94168.53
2023-01-18T17:24:33.680Z,94184.38
2023-01-18T17:27:01.316Z,94174.53
2023-01-18T17:29:28.170Z,94181.81
2023-01-18T17:31:54.939Z,94180.63
2023-01-18T17:34:28.002Z,94174.16
2023-01-18T17:36:57.401Z,94187.31
2023-01-18T17:39:31.940Z,94184.97
2023-01-18T17:42:12.227Z,94184.03
2023-01-18T17:44:41.160Z,94187.66
2023-01-18T17:47:08.002Z,94186.00
2023-01-18T17:49:34.752Z,94198.81
2023-01-18T17:52:01.453Z,94192.06
2023-01-18T17:54:28.675Z,94194.41
2023-01-18T17:56:55.299Z,94191.38
2023-01-18T17:59:21.959Z,94202.38
2023-01-18T18:01:48.621Z,94197.28
2023-01-18T18:04:15.266Z,94198.47
2023-01-18T18:06:49.697Z,94209.88
2023-01-18T18:09:20.874Z,94204.53
2023-01-18T18:11:47.479Z,94214.44
2023-01-18T18:14:14.012Z,94203.91
2023-01-18T18:16:43.473Z,94210.44
2023-01-18T18:19:14.501Z,94220.06
2023-01-18T18:21:42.478Z,94215.19
2023-01-18T18:24:10.695Z,94215.69
2023-01-18T18:26:37.866Z,94217.94
2023-01-18T18:29:04.694Z,94222.16
2023-01-18T18:31:31.531Z,94226.34
2023-01-18T18:33:58.483Z,94237.91
2023-01-18T18:36:27.383Z,94239.69
2023-01-18T18:38:54.249Z,94230.19
2023-01-18T18:41:21.180Z,94244.28
2023-01-18T18:43:47.828Z,94241.56
2023-01-18T18:46:14.581Z,94243.56
2023-01-18T18:48:41.344Z,94250.44
2023-01-18T18:51:09.967Z,94254.56
2023-01-18T18:53:41.223Z,94259.09
2023-01-18T18:56:10.338Z,94264.72
2023-01-18T18:58:38.090Z,94261.44
2023-01-18T19:01:05.589Z,94277.03
2023-01-18T19:03:33.253Z,94269.34
2023-01-18T19:06:00.055Z,94271.00
2023-01-18T19:08:26.768Z,94284.28
2023-01-18T19:10:53.387Z,94280.09
2023-01-18T19:13:20.373Z,94283.78
2023-01-18T19:15:47.710Z,94277.69
2023-01-18T19:18:14.911Z,94289.16
2023-01-18T19:20:41.939Z,94292.75
2023-01-18T19:23:09.617Z,94296.13
2023-01-18T19:25:39.387Z,94296.09
2023-01-18T19:28:06.083Z,94305.25
2023-01-18T19:30:33.370Z,94304.50
2023-01-18T19:33:00.615Z,94300.94
2023-01-18T19:35:27.340Z,94300.50
2023-01-18T19:37:54.466Z,94304.03
2023-01-18T19:40:21.679Z,94304.56
2023-01-18T19:42:54.656Z,94301.00
2023-01-18T19:45:27.966Z,94311.31
2023-01-18T19:47:56.990Z,94314.88
2023-01-18T19:50:23.837Z,94309.94
2023-01-18T19:52:50.803Z,94301.81
2023-01-18T19:55:17.669Z,94310.41
2023-01-18T19:57:44.264Z,94320.09
2023-01-18T20:00:11.487Z,94312.63
2023-01-18T20:02:38.959Z,94318.53
2023-01-18T20:05:06.340Z,94317.97
2023-01-18T20:07:33.168Z,94318.25
2023-01-18T20:09:59.771Z,94315.09
2023-01-18T20:12:29.305Z,94319.41
2023-01-18T20:14:55.889Z,94320.78
2023-01-18T20:17:23.024Z,94316.31
2023-01-18T20:19:50.991Z,94326.91
2023-01-18T20:22:17.760Z,94327.41
2023-01-18T20:24:44.332Z,94332.84
2023-01-18T20:27:16.243Z,94327.88
2023-01-18T20:29:43.573Z,94323.06
2023-01-18T20:32:16.240Z,94330.63
2023-01-18T20:34:44.725Z,94329.53
2023-01-18T20:37:12.540Z,94336.53
2023-01-18T20:39:39.723Z,94336.22
2023-01-18T20:42:06.332Z,94337.66
2023-01-18T20:44:33.076Z,94329.41
2023-01-18T20:46:59.821Z,94345.16
2023-01-18T20:49:37.250Z,94344.94
2023-01-18T20:52:05.938Z,94351.19
2023-01-18T20:54:34.690Z,94352.72
2023-01-18T20:57:02.201Z,94350.44
2023-01-18T20:59:28.795Z,94361.94
2023-01-18T21:01:55.501Z,94356.44
2023-01-18T21:04:22.166Z,94353.50
2023-01-18T21:06:49.900Z,94362.38
2023-01-18T21:09:17.122Z,94354.03
2023-01-18T21:11:44.066Z,94359.97
2023-01-18T21:14:10.751Z,94360.53
2023-01-18T21:16:37.604Z,94365.88
2023-01-18T21:19:04.563Z,94369.38
2023-01-18T21:21:31.932Z,94371.03
2023-01-18T21:23:59.418Z,94373.72
2023-01-18T21:26:26.313Z,94374.84
2023-01-18T21:28:53.360Z,94375.13
2023-01-18T21:31:20.307Z,94371.81
2023-01-18T21:33:47.068Z,94372.50
2023-01-18T21:36:17.689Z,94368.72
2023-01-18T21:38:44.519Z,94376.78
2023-01-18T21:41:30.364Z,94373.13
2023-01-18T21:44:15.762Z,94363.19
2023-01-18T21:46:46.695Z,94372.56
2023-01-18T21:49:52.171Z,94364.50
2023-01-18T21:52:38.789Z,94368.28
2023-01-18T21:55:05.656Z,94375.69
2023-01-18T21:57:32.229Z,94378.16
2023-01-18T21:59:58.851Z,94380.13
2023-01-18T22:02:25.537Z,94389.75
2023-01-18T22:05:00.961Z,94389.81
2023-01-18T22:07:29.934Z,94381.97
2023-01-18T22:10:05.991Z,94387.41
2023-01-18T22:12:34.933Z,94387.22
2023-01-18T22:15:02.190Z,94399.06
2023-01-18T22:17:28.906Z,94400.34
2023-01-18T22:19:55.680Z,94394.44
2023-01-18T22:22:22.232Z,94407.63
2023-01-18T22:24:49.381Z,94406.72
2023-01-18T22:27:16.073Z,94414.56
2023-01-18T22:29:42.674Z,94413.38
2023-01-18T22:32:09.345Z,94420.56
2023-01-18T22:34:36.379Z,94423.28
2023-01-18T22:37:03.346Z,94432.22
2023-01-18T22:39:30.089Z,94426.66
2023-01-18T22:41:56.642Z,94418.25
2023-01-18T22:44:23.336Z,94427.13
2023-01-18T22:46:50.018Z,94435.44
2023-01-18T22:49:16.696Z,94436.28
2023-01-18T22:51:43.307Z,94431.41
2023-01-18T22:54:10.212Z,94446.75
2023-01-18T22:56:36.889Z,94434.25
2023-01-18T22:59:03.557Z,94438.88
2023-01-18T23:01:32.312Z,94441.34
2023-01-18T23:04:04.125Z,94430.88
2023-01-18T23:06:45.635Z,94436.03
2023-01-18T23:09:14.450Z,94447.09
2023-01-18T23:11:41.332Z,94441.25
2023-01-18T23:14:27.167Z,94436.28
2023-01-18T23:17:12.209Z,94450.03
2023-01-18T23:19:39.057Z,94447.88
2023-01-18T23:22:07.310Z,94446.47
2023-01-18T23:24:35.847Z,94440.50
2023-01-18T23:27:03.830Z,94436.38
2023-01-18T23:29:30.400Z,94452.25
2023-01-18T23:31:58.198Z,94451.50
2023-01-18T23:34:25.024Z,94440.44
2023-01-18T23:36:51.744Z,94453.06
2023-01-18T23:39:36.913Z,94450.47
2023-01-18T23:42:21.872Z,94448.59
2023-01-18T23:45:07.116Z,94450.53
2023-01-18T23:47:51.907Z,94453.28
2023-01-18T23:50:37.166Z,94455.13
2023-01-18T23:53:22.187Z,94458.97
2023-01-18T23:55:52.396Z,94449.91
2023-01-18T23:58:19.029Z,94458.44
